Terminal Aerodrome Forecast
Issued by NWS Blacksburg, VA

Current Version | Previous Version | Text Only | Print | Product List | Glossary Off
Versions: 1 2 3 4 5 6 7 8 9 10 11 12 13 14 15 16 17 18 19 20 21 22 23 24 25 26 27 28 29 30 31 32 33 34 35

000
FTUS41 KRNK 301900 AAA
TAFBLF
TAF AMD
KBLF 301900Z 3019/3118 29017G35KT P6SM -SHSN SCT015 OVC035
      TEMPO 3019/3021 3SM -SHSN OVC015
     FM302200 30015G25KT P6SM BKN020
     FM310300 29010G20KT P6SM BKN015
     FM311200 28007KT P6SM SCT020=

USA.gov is the U.S. government's official web portal to all federal, state and local government web resources and services.